Terminal Aerodrome Forecast
Issued by NWS

Home | Current Version | Previous Version | Text Only | Print | Product List | Glossary On
Versions: 1 2 3 4 5 6 7 8 9 10 11 12 13 14 15
000
FTUS43 KAPX 301700
TAFAPN
TAF
KAPN 301738Z 3018/3118 21005KT P6SM VCSH BKN025
     FM310300 30006KT 5SM -SHRA BR OVC015
     FM310900 36015G30KT 3SM -SHRASN BR OVC008=

USA.gov is the U.S. government's official web portal to all federal, state and local government web resources and services.